sensor_id;sensor_type;location;lat;lon;timestamp;pressure;altitude;pressure_sealevel;temperature;humidity
66681;BME280;53575;51.366;12.350;2023-02-01T00:02:22;100188.84;;;3.36;100.00
66681;BME280;53575;51.366;12.350;2023-02-01T00:04:47;100197.28;;;3.29;100.00
66681;BME280;53575;51.366;12.350;2023-02-01T00:07:13;100201.69;;;3.33;99.71
66681;BME280;53575;51.366;12.350;2023-02-01T00:09:38;100205.94;;;3.31;99.72
66681;BME280;53575;51.366;12.350;2023-02-01T00:12:04;100189.53;;;3.29;99.23
66681;BME280;53575;51.366;12.350;2023-02-01T00:14:30;100201.59;;;3.28;98.77
66681;BME280;53575;51.366;12.350;2023-02-01T00:16:55;100196.53;;;3.34;97.92
66681;BME280;53575;51.366;12.350;2023-02-01T00:19:21;100206.19;;;3.43;96.35
66681;BME280;53575;51.366;12.350;2023-02-01T00:21:49;100192.28;;;3.36;96.27
66681;BME280;53575;51.366;12.350;2023-02-01T00:24:14;100194.91;;;3.39;96.27
66681;BME280;53575;51.366;12.350;2023-02-01T00:26:42;100205.25;;;3.39;95.02
66681;BME280;53575;51.366;12.350;2023-02-01T00:29:12;100201.78;;;3.37;94.77
66681;BME280;53575;51.366;12.350;2023-02-01T00:31:38;100200.91;;;3.37;94.57
66681;BME280;53575;51.366;12.350;2023-02-01T00:34:04;100201.00;;;3.41;93.79
66681;BME280;53575;51.366;12.350;2023-02-01T00:36:30;100195.03;;;3.44;93.62
66681;BME280;53575;51.366;12.350;2023-02-01T00:38:55;100205.41;;;3.47;93.20
66681;BME280;53575;51.366;12.350;2023-02-01T00:41:22;100201.06;;;3.45;93.08
66681;BME280;53575;51.366;12.350;2023-02-01T00:43:48;100208.97;;;3.52;92.74
66681;BME280;53575;51.366;12.350;2023-02-01T00:46:15;100213.19;;;3.49;93.12
66681;BME280;53575;51.366;12.350;2023-02-01T00:48:42;100211.66;;;3.58;91.57
66681;BME280;53575;51.366;12.350;2023-02-01T00:51:12;100205.56;;;3.55;91.84
66681;BME280;53575;51.366;12.350;2023-02-01T00:53:38;100210.88;;;3.62;91.41
66681;BME280;53575;51.366;12.350;2023-02-01T00:56:04;100206.63;;;3.64;91.26
66681;BME280;53575;51.366;12.350;2023-02-01T00:58:30;100218.75;;;3.69;90.90
66681;BME280;53575;51.366;12.350;2023-02-01T01:03:29;100216.28;;;3.73;90.32
66681;BME280;53575;51.366;12.350;2023-02-01T01:05:59;100218.91;;;3.76;90.39
66681;BME280;53575;51.366;12.350;2023-02-01T01:08:25;100214.66;;;3.78;90.34
66681;BME280;53575;51.366;12.350;2023-02-01T01:10:50;100216.41;;;3.79;90.08
66681;BME280;53575;51.366;12.350;2023-02-01T01:13:16;100217.19;;;3.77;90.01
66681;BME280;53575;51.366;12.350;2023-02-01T01:15:41;100218.13;;;3.79;90.41
66681;BME280;53575;51.366;12.350;2023-02-01T01:18:07;100212.03;;;3.77;90.84
66681;BME280;53575;51.366;12.350;2023-02-01T01:20:37;100212.09;;;3.78;90.60
66681;BME280;53575;51.366;12.350;2023-02-01T01:23:04;100220.81;;;3.85;90.19
66681;BME280;53575;51.366;12.350;2023-02-01T01:25:29;100217.47;;;3.90;90.01
66681;BME280;53575;51.366;12.350;2023-02-01T01:27:55;100213.16;;;3.89;90.05
66681;BME280;53575;51.366;12.350;2023-02-01T01:30:21;100214.84;;;3.87;90.65
66681;BME280;53575;51.366;12.350;2023-02-01T01:32:46;100210.53;;;3.88;91.60
66681;BME280;53575;51.366;12.350;2023-02-01T01:35:12;100208.03;;;3.92;91.50
66681;BME280;53575;51.366;12.350;2023-02-01T01:37:37;100208.88;;;3.91;91.69
66681;BME280;53575;51.366;12.350;2023-02-01T01:40:04;100208.88;;;3.90;92.28
66681;BME280;53575;51.366;12.350;2023-02-01T01:42:30;100198.47;;;3.87;92.30
66681;BME280;53575;51.366;12.350;2023-02-01T01:44:59;100189.75;;;3.82;92.96
66681;BME280;53575;51.366;12.350;2023-02-01T01:47:35;100195.72;;;3.79;92.84
66681;BME280;53575;51.366;12.350;2023-02-01T01:50:04;100185.38;;;3.79;92.74
66681;BME280;53575;51.366;12.350;2023-02-01T01:52:31;100175.84;;;3.77;92.06
66681;BME280;53575;51.366;12.350;2023-02-01T01:54:57;100174.97;;;3.75;92.55
66681;BME280;53575;51.366;12.350;2023-02-01T01:57:27;100168.97;;;3.77;92.04
66681;BME280;53575;51.366;12.350;2023-02-01T02:00:01;100155.09;;;3.74;91.83
66681;BME280;53575;51.366;12.350;2023-02-01T02:02:27;100166.28;;;3.71;91.79
66681;BME280;53575;51.366;12.350;2023-02-01T02:04:53;100162.78;;;3.69;91.94
66681;BME280;53575;51.366;12.350;2023-02-01T02:07:26;100153.31;;;3.70;92.21
66681;BME280;53575;51.366;12.350;2023-02-01T02:09:53;100155.00;;;3.67;91.92
66681;BME280;53575;51.366;12.350;2023-02-01T02:12:19;100148.16;;;3.70;92.06
66681;BME280;53575;51.366;12.350;2023-02-01T02:14:44;100129.09;;;3.63;92.41
66681;BME280;53575;51.366;12.350;2023-02-01T02:20:27;100133.38;;;3.62;93.01
66681;BME280;53575;51.366;12.350;2023-02-01T02:34:14;100149.94;;;3.72;91.79
66681;BME280;53575;51.366;12.350;2023-02-01T02:36:56;100149.06;;;3.73;91.49
66681;BME280;53575;51.366;12.350;2023-02-01T02:45:44;100124.94;;;3.71;92.22
66681;BME280;53575;51.366;12.350;2023-02-01T02:49:00;100132.63;;;3.70;92.04
66681;BME280;53575;51.366;12.350;2023-02-01T02:54:30;100142.13;;;3.69;91.94
66681;BME280;53575;51.366;12.350;2023-02-01T02:57:14;100136.19;;;3.75;91.10
66681;BME280;53575;51.366;12.350;2023-02-01T03:00:00;100149.13;;;3.75;91.76
66681;BME280;53575;51.366;12.350;2023-02-01T03:02:46;100143.91;;;3.72;91.35
66681;BME280;53575;51.366;12.350;2023-02-01T03:05:39;100136.34;;;3.82;90.92
66681;BME280;53575;51.366;12.350;2023-02-01T03:08:15;100134.63;;;3.83;91.41
66681;BME280;53575;51.366;12.350;2023-02-01T03:13:28;100141.66;;;3.90;90.82
66681;BME280;53575;51.366;12.350;2023-02-01T03:18:45;100137.47;;;3.98;89.52
66681;BME280;53575;51.366;12.350;2023-02-01T03:21:17;100140.16;;;4.04;89.79
66681;BME280;53575;51.366;12.350;2023-02-01T03:23:48;100132.50;;;4.09;89.41
66681;BME280;53575;51.366;12.350;2023-02-01T03:26:17;100137.75;;;4.13;88.68
66681;BME280;53575;51.366;12.350;2023-02-01T03:28:55;100133.59;;;4.23;88.25
66681;BME280;53575;51.366;12.350;2023-02-01T03:31:22;100129.25;;;4.22;88.44
66681;BME280;53575;51.366;12.350;2023-02-01T03:33:47;100129.25;;;4.22;88.27
66681;BME280;53575;51.366;12.350;2023-02-01T03:36:25;100137.00;;;4.21;87.90
66681;BME280;53575;51.366;12.350;2023-02-01T03:39:05;100114.53;;;4.17;88.13
66681;BME280;53575;51.366;12.350;2023-02-01T03:41:35;100112.94;;;4.25;87.63
66681;BME280;53575;51.366;12.350;2023-02-01T03:46:45;100114.59;;;4.23;87.42
66681;BME280;53575;51.366;12.350;2023-02-01T03:49:18;100117.19;;;4.23;87.58
66681;BME280;53575;51.366;12.350;2023-02-01T03:51:45;100118.84;;;4.16;87.95
66681;BME280;53575;51.366;12.350;2023-02-01T03:54:13;100099.03;;;4.18;87.07
66681;BME280;53575;51.366;12.350;2023-02-01T03:56:42;100100.75;;;4.18;87.79
66681;BME280;53575;51.366;12.350;2023-02-01T03:59:10;100099.81;;;4.12;87.85
66681;BME280;53575;51.366;12.350;2023-02-01T04:01:35;100101.50;;;4.12;87.24
66681;BME280;53575;51.366;12.350;2023-02-01T04:04:01;100092.91;;;4.13;87.29
66681;BME280;53575;51.366;12.350;2023-02-01T04:06:26;100080.81;;;4.10;87.26
66681;BME280;53575;51.366;12.350;2023-02-01T04:08:52;100088.63;;;4.13;86.98
66681;BME280;53575;51.366;12.350;2023-02-01T04:11:17;100090.34;;;4.14;87.56
66681;BME280;53575;51.366;12.350;2023-02-01T04:13:43;100080.81;;;4.10;87.34
66681;BME280;53575;51.366;12.350;2023-02-01T04:16:09;100077.34;;;4.08;87.21
66681;BME280;53575;51.366;12.350;2023-02-01T04:18:34;100076.50;;;4.11;87.44
66681;BME280;53575;51.366;12.350;2023-02-01T04:21:00;100060.97;;;4.11;87.00
66681;BME280;53575;51.366;12.350;2023-02-01T04:23:27;100054.03;;;4.07;87.13
66681;BME280;53575;51.366;12.350;2023-02-01T04:25:52;100053.97;;;4.04;87.48
66681;BME280;53575;51.366;12.350;2023-02-01T04:28:18;100057.47;;;4.07;87.20
66681;BME280;53575;51.366;12.350;2023-02-01T04:30:45;100047.97;;;4.06;86.73
66681;BME280;53575;51.366;12.350;2023-02-01T04:33:11;100057.47;;;4.06;87.23
66681;BME280;53575;51.366;12.350;2023-02-01T04:35:39;100056.56;;;4.04;86.66
66681;BME280;53575;51.366;12.350;2023-02-01T04:38:05;100047.06;;;4.04;87.32
66681;BME280;53575;51.366;12.350;2023-02-01T04:40:32;100053.97;;;4.04;87.09
66681;BME280;53575;51.366;12.350;2023-02-01T04:42:58;100051.34;;;4.01;87.06
66681;BME280;53575;51.366;12.350;2023-02-01T04:45:23;100041.03;;;4.04;87.28
66681;BME280;53575;51.366;12.350;2023-02-01T04:47:49;100048.00;;;4.08;86.59
66681;BME280;53575;51.366;12.350;2023-02-01T04:50:14;100040.28;;;4.09;86.83
66681;BME280;53575;51.366;12.350;2023-02-01T04:52:40;100055.75;;;4.06;86.60
66681;BME280;53575;51.366;12.350;2023-02-01T04:55:10;100046.25;;;4.07;86.59
66681;BME280;53575;51.366;12.350;2023-02-01T04:57:35;100040.25;;;4.08;86.56
66681;BME280;53575;51.366;12.350;2023-02-01T05:00:04;100044.59;;;4.12;85.42
66681;BME280;53575;51.366;12.350;2023-02-01T05:02:30;100042.94;;;4.14;85.73
66681;BME280;53575;51.366;12.350;2023-02-01T05:04:57;100041.19;;;4.13;84.87
66681;BME280;53575;51.366;12.350;2023-02-01T05:07:22;100045.47;;;4.11;85.54
66681;BME280;53575;51.366;12.350;2023-02-01T05:09:48;100057.47;;;4.07;85.67
66681;BME280;53575;51.366;12.350;2023-02-01T05:12:13;100044.59;;;4.12;85.35
66681;BME280;53575;51.366;12.350;2023-02-01T05:14:57;100040.22;;;4.05;86.24
66681;BME280;53575;51.366;12.350;2023-02-01T05:17:23;100039.44;;;4.12;85.65
66681;BME280;53575;51.366;12.350;2023-02-01T05:19:48;100047.25;;;4.13;85.80
66681;BME280;53575;51.366;12.350;2023-02-01T05:22:13;100034.31;;;4.13;86.17
66681;BME280;53575;51.366;12.350;2023-02-01T05:24:39;100054.94;;;4.10;86.36
66681;BME280;53575;51.366;12.350;2023-02-01T05:27:04;100035.16;;;4.12;86.61
66681;BME280;53575;51.366;12.350;2023-02-01T05:29:30;100021.38;;;4.15;86.33
66681;BME280;53575;51.366;12.350;2023-02-01T05:31:55;100026.56;;;4.15;86.36
66681;BME280;53575;51.366;12.350;2023-02-01T05:34:20;100025.69;;;4.13;86.51
66681;BME280;53575;51.366;12.350;2023-02-01T05:36:46;100029.88;;;4.06;86.94
66681;BME280;53575;51.366;12.350;2023-02-01T05:39:11;100016.94;;;4.05;87.23
66681;BME280;53575;51.366;12.350;2023-02-01T05:41:37;100018.63;;;4.03;87.15
66681;BME280;53575;51.366;12.350;2023-02-01T05:44:03;100010.91;;;4.06;87.52
66681;BME280;53575;51.366;12.350;2023-02-01T05:46:28;100014.25;;;4.00;87.77
66681;BME280;53575;51.366;12.350;2023-02-01T05:48:54;100015.97;;;3.98;87.89
66681;BME280;53575;51.366;12.350;2023-02-01T05:51:19;100004.72;;;3.96;88.70
66681;BME280;53575;51.366;12.350;2023-02-01T05:53:44;100016.03;;;4.01;88.30
66681;BME280;53575;51.366;12.350;2023-02-01T05:56:10;100018.50;;;3.94;89.16
66681;BME280;53575;51.366;12.350;2023-02-01T05:58:35;100014.25;;;4.00;88.35
66681;BME280;53575;51.366;12.350;2023-02-01T06:01:02;100005.69;;;4.03;89.08
66681;BME280;53575;51.366;12.350;2023-02-01T06:03:28;100015.16;;;4.01;88.90
66681;BME280;53575;51.366;12.350;2023-02-01T06:05:54;100013.44;;;4.03;88.70
66681;BME280;53575;51.366;12.350;2023-02-01T06:08:20;100017.75;;;4.01;88.88
66681;BME280;53575;51.366;12.350;2023-02-01T06:10:45;100004.72;;;3.95;89.76
66681;BME280;53575;51.366;12.350;2023-02-01T06:13:11;100004.75;;;3.98;89.44
66681;BME280;53575;51.366;12.350;2023-02-01T06:15:36;99989.25;;;3.98;89.75
66681;BME280;53575;51.366;12.350;2023-02-01T06:18:03;100017.69;;;3.99;89.58
66681;BME280;53575;51.366;12.350;2023-02-01T06:20:29;100007.41;;;4.02;89.73
66681;BME280;53575;51.366;12.350;2023-02-01T06:22:54;100000.53;;;4.04;89.69
66681;BME280;53575;51.366;12.350;2023-02-01T06:25:20;99997.06;;;4.02;89.57
66681;BME280;53575;51.366;12.350;2023-02-01T06:27:46;99994.50;;;4.02;89.19
66681;BME280;53575;51.366;12.350;2023-02-01T06:30:12;99995.34;;;4.03;89.76
66681;BME280;53575;51.366;12.350;2023-02-01T06:32:41;99978.97;;;4.02;89.30
66681;BME280;53575;51.366;12.350;2023-02-01T06:35:08;99978.97;;;4.04;89.40
66681;BME280;53575;51.366;12.350;2023-02-01T06:37:37;99982.38;;;4.00;88.87
66681;BME280;53575;51.366;12.350;2023-02-01T06:40:02;99987.59;;;4.03;89.35
66681;BME280;53575;51.366;12.350;2023-02-01T06:42:28;99984.16;;;4.04;89.58
66681;BME280;53575;51.366;12.350;2023-02-01T06:44:53;99987.66;;;4.06;88.93
66681;BME280;53575;51.366;12.350;2023-02-01T06:47:19;99974.78;;;4.12;88.46
66681;BME280;53575;51.366;12.350;2023-02-01T06:49:44;99998.97;;;4.15;88.37
66681;BME280;53575;51.366;12.350;2023-02-01T06:52:10;99981.78;;;4.16;88.39
66681;BME280;53575;51.366;12.350;2023-02-01T06:54:35;99977.47;;;4.18;88.29
66681;BME280;53575;51.366;12.350;2023-02-01T06:57:02;99974.94;;;4.23;87.83
66681;BME280;53575;51.366;12.350;2023-02-01T06:59:28;99978.50;;;4.28;87.65
66681;BME280;53575;51.366;12.350;2023-02-01T07:01:54;100000.03;;;4.28;87.44
66681;BME280;53575;51.366;12.350;2023-02-01T07:04:19;99978.53;;;4.32;86.99
66681;BME280;53575;51.366;12.350;2023-02-01T07:06:45;99966.47;;;4.31;87.33
66681;BME280;53575;51.366;12.350;2023-02-01T07:09:10;99960.41;;;4.29;87.52
66681;BME280;53575;51.366;12.350;2023-02-01T07:11:39;99968.19;;;4.32;87.08
66681;BME280;53575;51.366;12.350;2023-02-01T07:14:11;99966.47;;;4.34;87.34
66681;BME280;53575;51.366;12.350;2023-02-01T07:16:37;99967.44;;;4.41;86.64
66681;BME280;53575;51.366;12.350;2023-02-01T07:19:02;99962.34;;;4.47;86.57
66681;BME280;53575;51.366;12.350;2023-02-01T07:21:28;99966.63;;;4.44;86.39
66681;BME280;53575;51.366;12.350;2023-02-01T07:23:54;99979.59;;;4.47;86.25
66681;BME280;53575;51.366;12.350;2023-02-01T07:26:20;99964.16;;;4.53;85.45
66681;BME280;53575;51.366;12.350;2023-02-01T07:28:45;99963.31;;;4.55;86.11
66681;BME280;53575;51.366;12.350;2023-02-01T07:31:16;99963.38;;;4.58;85.64
66681;BME280;53575;51.366;12.350;2023-02-01T07:33:47;99966.00;;;4.63;85.28
66681;BME280;53575;51.366;12.350;2023-02-01T07:36:16;99972.94;;;4.67;85.08
66681;BME280;53575;51.366;12.350;2023-02-01T07:38:43;99960.94;;;4.72;84.92
66681;BME280;53575;51.366;12.350;2023-02-01T07:41:09;99955.75;;;4.71;84.43
66681;BME280;53575;51.366;12.350;2023-02-01T07:43:35;99959.25;;;4.74;84.17
66681;BME280;53575;51.366;12.350;2023-02-01T07:46:01;99961.78;;;4.73;84.43
66681;BME280;53575;51.366;12.350;2023-02-01T07:48:27;99944.56;;;4.76;84.17
66681;BME280;53575;51.366;12.350;2023-02-01T07:51:03;99953.22;;;4.77;84.73
66681;BME280;53575;51.366;12.350;2023-02-01T07:53:30;99955.00;;;4.82;84.27
66681;BME280;53575;51.366;12.350;2023-02-01T07:55:56;99949.84;;;4.81;84.54
66681;BME280;53575;51.366;12.350;2023-02-01T07:58:25;99938.63;;;4.83;84.63
66681;BME280;53575;51.366;12.350;2023-02-01T08:00:50;99954.13;;;4.80;84.69
66681;BME280;53575;51.366;12.350;2023-02-01T08:06:19;99963.63;;;4.81;85.08
66681;BME280;53575;51.366;12.350;2023-02-01T08:08:51;99965.38;;;4.84;85.07
66681;BME280;53575;51.366;12.350;2023-02-01T08:11:18;99961.06;;;4.84;85.33
66681;BME280;53575;51.366;12.350;2023-02-01T08:13:43;99958.50;;;4.86;85.05
66681;BME280;53575;51.366;12.350;2023-02-01T08:16:10;99971.41;;;4.81;86.27
66681;BME280;53575;51.366;12.350;2023-02-01T08:18:37;99961.06;;;4.84;85.97
66681;BME280;53575;51.366;12.350;2023-02-01T08:21:08;99961.91;;;4.82;85.86
66681;BME280;53575;51.366;12.350;2023-02-01T08:23:35;99960.97;;;4.77;85.84
66681;BME280;53575;51.366;12.350;2023-02-01T08:26:10;99961.81;;;4.74;86.33
66681;BME280;53575;51.366;12.350;2023-02-01T08:28:37;99963.56;;;4.77;87.44
66681;BME280;53575;51.366;12.350;2023-02-01T08:31:10;99969.59;;;4.74;88.94
66681;BME280;53575;51.366;12.350;2023-02-01T08:33:36;99964.28;;;4.62;89.21
66681;BME280;53575;51.366;12.350;2023-02-01T08:36:06;99975.41;;;4.56;91.58
66681;BME280;53575;51.366;12.350;2023-02-01T08:38:31;99959.69;;;4.43;92.14
66681;BME280;53575;51.366;12.350;2023-02-01T08:40:57;99971.69;;;4.36;93.52
66681;BME280;53575;51.366;12.350;2023-02-01T08:43:23;99951.59;;;4.17;96.87
66681;BME280;53575;51.366;12.350;2023-02-01T08:45:50;99974.63;;;4.00;100.00
66681;BME280;53575;51.366;12.350;2023-02-01T08:48:15;99967.44;;;3.80;100.00
66681;BME280;53575;51.366;12.350;2023-02-01T08:50:40;99967.22;;;3.66;100.00
66681;BME280;53575;51.366;12.350;2023-02-01T08:53:06;100011.94;;;3.62;100.00
66681;BME280;53575;51.366;12.350;2023-02-01T08:55:31;99968.66;;;3.48;100.00
66681;BME280;53575;51.366;12.350;2023-02-01T08:57:57;99977.22;;;3.47;100.00
66681;BME280;53575;51.366;12.350;2023-02-01T09:00:22;99986.63;;;3.43;100.00
66681;BME280;53575;51.366;12.350;2023-02-01T09:02:47;99983.22;;;3.46;100.00
66681;BME280;53575;51.366;12.350;2023-02-01T09:05:13;99990.06;;;3.42;100.00
66681;BME280;53575;51.366;12.350;2023-02-01T09:07:41;99973.81;;;3.48;100.00
66681;BME280;53575;51.366;12.350;2023-02-01T09:10:07;99990.97;;;3.46;100.00
66681;BME280;53575;51.366;12.350;2023-02-01T09:12:34;99990.09;;;3.44;100.00
66681;BME280;53575;51.366;12.350;2023-02-01T09:15:00;99985.81;;;3.47;100.00
66681;BME280;53575;51.366;12.350;2023-02-01T09:17:26;99986.72;;;3.48;100.00
66681;BME280;53575;51.366;12.350;2023-02-01T09:19:52;99983.31;;;3.50;100.00
66681;BME280;53575;51.366;12.350;2023-02-01T09:22:18;99988.59;;;3.56;100.00
66681;BME280;53575;51.366;12.350;2023-02-01T09:24:43;99989.44;;;3.57;100.00
66681;BME280;53575;51.366;12.350;2023-02-01T09:27:09;100004.22;;;3.65;100.00
66681;BME280;53575;51.366;12.350;2023-02-01T09:29:34;99997.34;;;3.64;100.00
66681;BME280;53575;51.366;12.350;2023-02-01T09:32:00;100011.28;;;3.74;100.00
66681;BME280;53575;51.366;12.350;2023-02-01T09:34:25;100006.94;;;3.72;100.00
66681;BME280;53575;51.366;12.350;2023-02-01T09:36:51;100009.63;;;3.78;100.00
66681;BME280;53575;51.366;12.350;2023-02-01T09:39:16;100002.88;;;3.87;100.00
66681;BME280;53575;51.366;12.350;2023-02-01T09:47:21;100002.56;;;4.24;100.00
66681;BME280;53575;51.366;12.350;2023-02-01T09:49:56;100010.50;;;4.36;100.00
66681;BME280;53575;51.366;12.350;2023-02-01T09:52:30;100011.38;;;4.38;100.00
66681;BME280;53575;51.366;12.350;2023-02-01T09:55:01;100010.50;;;4.37;100.00
66681;BME280;53575;51.366;12.350;2023-02-01T09:58:02;100033.03;;;4.43;100.00
66681;BME280;53575;51.366;12.350;2023-02-01T10:00:33;100007.25;;;4.51;100.00
66681;BME280;53575;51.366;12.350;2023-02-01T10:03:00;100009.81;;;4.49;100.00
66681;BME280;53575;51.366;12.350;2023-02-01T10:11:07;100003.19;;;4.73;99.83
66681;BME280;53575;51.366;12.350;2023-02-01T10:17:09;100014.78;;;5.01;97.59
66681;BME280;53575;51.366;12.350;2023-02-01T10:24:54;100017.50;;;5.13;95.33
66681;BME280;53575;51.366;12.350;2023-02-01T10:27:29;100015.06;;;5.27;94.73
66681;BME280;53575;51.366;12.350;2023-02-01T10:29:59;100008.19;;;5.30;94.23
66681;BME280;53575;51.366;12.350;2023-02-01T10:32:33;100011.75;;;5.42;93.10
66681;BME280;53575;51.366;12.350;2023-02-01T10:35:04;100016.97;;;5.45;93.05
66681;BME280;53575;51.366;12.350;2023-02-01T10:37:34;100003.28;;;5.58;91.14
66681;BME280;53575;51.366;12.350;2023-02-01T10:40:19;100016.28;;;5.62;90.43
66681;BME280;53575;51.366;12.350;2023-02-01T10:42:47;100006.81;;;5.66;89.93
66681;BME280;53575;51.366;12.350;2023-02-01T10:45:15;100047.38;;;5.64;88.23
66681;BME280;53575;51.366;12.350;2023-02-01T10:47:42;100013.78;;;5.73;86.83
66681;BME280;53575;51.366;12.350;2023-02-01T10:52:45;99989.69;;;5.90;83.78
66681;BME280;53575;51.366;12.350;2023-02-01T10:55:34;99996.69;;;5.94;82.95
66681;BME280;53575;51.366;12.350;2023-02-01T10:58:03;99989.63;;;5.82;82.44
66681;BME280;53575;51.366;12.350;2023-02-01T11:01:07;100000.03;;;5.85;83.12
66681;BME280;53575;51.366;12.350;2023-02-01T11:03:42;99995.09;;;6.11;83.02
66681;BME280;53575;51.366;12.350;2023-02-01T11:06:13;99991.75;;;6.30;81.14
66681;BME280;53575;51.366;12.350;2023-02-01T11:08:51;99972.75;;;6.41;79.51
66681;BME280;53575;51.366;12.350;2023-02-01T11:11:18;99990.09;;;6.42;79.58
66681;BME280;53575;51.366;12.350;2023-02-01T11:13:43;99976.28;;;6.49;79.39
66681;BME280;53575;51.366;12.350;2023-02-01T11:16:14;100016.97;;;6.56;78.16
66681;BME280;53575;51.366;12.350;2023-02-01T11:18:40;100000.47;;;6.48;77.61
66681;BME280;53575;51.366;12.350;2023-02-01T11:21:08;100002.28;;;6.61;77.51
66681;BME280;53575;51.366;12.350;2023-02-01T11:23:40;100007.44;;;6.53;76.97
66681;BME280;53575;51.366;12.350;2023-02-01T11:26:14;99984.91;;;6.42;78.16
66681;BME280;53575;51.366;12.350;2023-02-01T11:28:47;99990.97;;;6.45;77.34
66681;BME280;53575;51.366;12.350;2023-02-01T11:31:15;100000.53;;;6.60;77.53
66681;BME280;53575;51.366;12.350;2023-02-01T11:33:52;100009.28;;;6.79;76.11
66681;BME280;53575;51.366;12.350;2023-02-01T11:36:23;100007.56;;;6.81;76.18
66681;BME280;53575;51.366;12.350;2023-02-01T11:38:54;99991.19;;;6.97;76.44
66681;BME280;53575;51.366;12.350;2023-02-01T11:41:31;99989.44;;;6.96;75.36
66681;BME280;53575;51.366;12.350;2023-02-01T11:44:00;100005.03;;;7.01;75.38
66681;BME280;53575;51.366;12.350;2023-02-01T11:46:31;100008.47;;;6.92;75.59
66681;BME280;53575;51.366;12.350;2023-02-01T11:49:14;99988.56;;;6.91;75.75
66681;BME280;53575;51.366;12.350;2023-02-01T12:00:29;99973.00;;;6.96;73.58
66681;BME280;53575;51.366;12.350;2023-02-01T12:06:05;99966.88;;;6.80;73.15
66681;BME280;53575;51.366;12.350;2023-02-01T12:11:35;99961.75;;;7.04;72.72
66681;BME280;53575;51.366;12.350;2023-02-01T12:14:24;99960.00;;;6.97;72.19
66681;BME280;53575;51.366;12.350;2023-02-01T12:22:19;99951.34;;;7.00;72.26
66681;BME280;53575;51.366;12.350;2023-02-01T12:31:24;99948.78;;;6.98;69.87
66681;BME280;53575;51.366;12.350;2023-02-01T12:34:26;99934.03;;;6.99;70.34
66681;BME280;53575;51.366;12.350;2023-02-01T12:39:52;99905.50;;;7.14;71.19
66681;BME280;53575;51.366;12.350;2023-02-01T12:42:24;99927.13;;;7.12;68.70
66681;BME280;53575;51.366;12.350;2023-02-01T12:44:55;99913.28;;;7.11;69.04
66681;BME280;53575;51.366;12.350;2023-02-01T12:48:12;99921.94;;;7.02;68.69
66681;BME280;53575;51.366;12.350;2023-02-01T12:50:24;99916.75;;;7.02;69.15
66681;BME280;53575;51.366;12.350;2023-02-01T12:52:53;99923.66;;;7.03;69.06
66681;BME280;53575;51.366;12.350;2023-02-01T12:55:25;99897.69;;;6.99;68.58
66681;BME280;53575;51.366;12.350;2023-02-01T12:58:06;99915.00;;;7.03;68.30
66681;BME280;53575;51.366;12.350;2023-02-01T13:00:35;99904.59;;;7.00;67.02
66681;BME280;53575;51.366;12.350;2023-02-01T13:06:34;99921.88;;;6.86;67.82
66681;BME280;53575;51.366;12.350;2023-02-01T13:11:37;99904.53;;;6.74;66.29
66681;BME280;53575;51.366;12.350;2023-02-01T13:16:59;99901.03;;;6.67;65.83
66681;BME280;53575;51.366;12.350;2023-02-01T13:22:02;99902.81;;;6.76;67.03
66681;BME280;53575;51.366;12.350;2023-02-01T13:27:02;99886.38;;;6.75;67.19
66681;BME280;53575;51.366;12.350;2023-02-01T13:29:29;99883.78;;;6.72;68.25
66681;BME280;53575;51.366;12.350;2023-02-01T13:38:14;99879.41;;;6.71;68.36
66681;BME280;53575;51.366;12.350;2023-02-01T13:40:41;99887.22;;;6.68;67.91
66681;BME280;53575;51.366;12.350;2023-02-01T13:43:17;99894.13;;;6.68;67.10
66681;BME280;53575;51.366;12.350;2023-02-01T13:45:53;99863.88;;;6.77;66.68
66681;BME280;53575;51.366;12.350;2023-02-01T13:48:26;99867.34;;;6.96;66.00
66681;BME280;53575;51.366;12.350;2023-02-01T13:50:56;99867.38;;;7.04;65.33
66681;BME280;53575;51.366;12.350;2023-02-01T13:53:31;99868.22;;;6.92;65.38
66681;BME280;53575;51.366;12.350;2023-02-01T13:56:12;99870.84;;;6.98;65.75
66681;BME280;53575;51.366;12.350;2023-02-01T13:58:40;99858.69;;;6.93;65.80
66681;BME280;53575;51.366;12.350;2023-02-01T14:09:33;99847.38;;;6.63;72.18
66681;BME280;53575;51.366;12.350;2023-02-01T14:15:37;99846.50;;;6.49;74.20
66681;BME280;53575;51.366;12.350;2023-02-01T14:21:24;99822.25;;;6.51;73.96
66681;BME280;53575;51.366;12.350;2023-02-01T14:26:24;99811.88;;;6.59;74.58
66681;BME280;53575;51.366;12.350;2023-02-01T14:28:56;99815.38;;;6.64;73.28
66681;BME280;53575;51.366;12.350;2023-02-01T14:31:33;99800.66;;;6.63;73.92
66681;BME280;53575;51.366;12.350;2023-02-01T14:34:03;99779.03;;;6.73;73.85
66681;BME280;53575;51.366;12.350;2023-02-01T14:36:50;99786.84;;;6.79;73.42
66681;BME280;53575;51.366;12.350;2023-02-01T14:41:47;99792.00;;;6.70;73.05
66681;BME280;53575;51.366;12.350;2023-02-01T14:44:21;99785.94;;;6.64;73.23
66681;BME280;53575;51.366;12.350;2023-02-01T14:47:07;99774.69;;;6.51;73.49
66681;BME280;53575;51.366;12.350;2023-02-01T14:52:17;99798.03;;;6.43;73.30
66681;BME280;53575;51.366;12.350;2023-02-01T14:54:46;99771.19;;;6.43;73.69
66681;BME280;53575;51.366;12.350;2023-02-01T14:57:18;99774.66;;;6.45;73.82
66681;BME280;53575;51.366;12.350;2023-02-01T14:59:45;99765.16;;;6.38;74.60
66681;BME280;53575;51.366;12.350;2023-02-01T15:02:21;99795.38;;;6.25;75.70
66681;BME280;53575;51.366;12.350;2023-02-01T15:04:54;99829.94;;;6.16;76.84
66681;BME280;53575;51.366;12.350;2023-02-01T15:07:21;99771.09;;;6.06;78.74
66681;BME280;53575;51.366;12.350;2023-02-01T15:09:50;99799.56;;;5.95;79.02
66681;BME280;53575;51.366;12.350;2023-02-01T15:12:25;99810.72;;;5.79;80.33
66681;BME280;53575;51.366;12.350;2023-02-01T15:15:22;99778.72;;;5.69;80.49
66681;BME280;53575;51.366;12.350;2023-02-01T15:17:57;99820.16;;;5.66;81.02